Lynch, Maryland
Current Conditions -  °F | °C
As of 7:57 AM on Friday 19 Dec 2014 (Local Time) from KAPG Reporting Station
Overcast Overcast  
Wind Chill: 30°   Ceiling: 3000
Heat Index: 37°   Visibility: 7mi
Dew Point: 23°   Wind: 12mph
Humidity: 56%   Direction: 280°W
Pressure: 30.11"   Gusts: NA
Location:  39.3°N, 76.1094°W
Report Text: KAPG 191257Z 28010KT 7SM OVC030 03/M05 A3011
Loading
Personal Weather Stations






























Interactive Weather Map New forecast layout! Learn more

10-Day Weather Forecast

Advertisements
Track Severe Weather on mobile